Time;durP1;ratioP1;P1;durP2;ratioP2;P2;SDS_P1;SDS_P2;PMS_P1;PMS_P2;Temp;Humidity;BMP_temperature;BMP_pressure;BME280_temperature;BME280_humidity;BME280_pressure;Samples;Min_cycle;Max_cycle;Signal;HPM_P1;HPM_P2
2022/02/23 00:04:36;;;;;;;13.50;5.80;;;;;;;2.32;69.21;98493.61;219075;1273;25418;-70
2022/02/23 00:09:38;;;;;;;19.10;5.80;;;;;;;2.38;68.90;98499.41;219055;1273;22614;-70
2022/02/23 00:14:41;;;;;;;15.30;5.10;;;;;;;2.43;68.71;98502.23;219219;1271;23517;-70
2022/02/23 00:19:44;;;;;;;13.30;4.60;;;;;;;2.49;68.70;98497.88;219228;1271;25320;-70
2022/02/23 00:24:46;;;;;;;16.70;5.10;;;;;;;2.52;68.30;98486.03;219233;1271;25840;-68
2022/02/23 00:29:49;;;;;;;11.20;4.50;;;;;;;2.58;68.30;98480.14;219581;1273;24248;-69
2022/02/23 00:34:52;;;;;;;13.30;4.90;;;;;;;2.61;68.47;98477.85;219122;1272;22571;-70
2022/02/23 00:39:57;;;;;;;8.80;4.40;;;;;;;2.64;68.47;98470.53;220445;1271;22569;-71
2022/02/23 00:44:59;;;;;;;9.60;4.40;;;;;;;2.66;68.30;98449.19;220770;1271;22633;-69
2022/02/23 00:50:03;;;;;;;12.60;4.30;;;;;;;2.68;68.29;98447.42;219188;1271;24007;-69
2022/02/23 00:55:08;;;;;;;8.60;4.20;;;;;;;2.71;68.19;98438.16;219224;1271;22550;-68
2022/02/23 01:00:11;;;;;;;14.30;4.60;;;;;;;2.74;67.99;98431.67;219071;1271;22547;-69
2022/02/23 01:05:13;;;;;;;8.30;3.70;;;;;;;2.76;67.91;98438.95;219257;1271;24320;-69
2022/02/23 01:10:19;;;;;;;11.80;4.20;;;;;;;2.75;67.78;98433.97;219381;1271;24249;-68
2022/02/23 01:15:27;;;;;;;8.90;3.90;;;;;;;2.75;67.78;98429.25;219962;1271;24291;-69
2022/02/23 01:20:29;;;;;;;10.90;4.40;;;;;;;2.75;67.87;98415.50;219564;1273;22586;-69
2022/02/23 01:25:34;;;;;;;9.30;3.20;;;;;;;2.77;67.89;98404.05;219548;1271;22541;-68
2022/02/23 01:30:45;;;;;;;10.00;3.50;;;;;;;2.78;68.18;98391.15;219514;1272;23832;-68
2022/02/23 01:36:10;;;;;;;9.40;3.60;;;;;;;2.83;68.36;98398.40;219410;1271;22643;-68
2022/02/23 01:41:19;;;;;;;7.90;3.00;;;;;;;2.85;68.46;98393.56;219228;1271;22724;-70
2022/02/23 01:46:22;;;;;;;6.80;2.80;;;;;;;2.86;68.82;98377.71;219852;1271;22600;-69
2022/02/23 01:51:55;;;;;;;12.50;3.70;;;;;;;2.87;69.03;98359.77;219692;1271;25449;-69
2022/02/23 01:57:21;;;;;;;11.50;3.30;;;;;;;2.89;69.36;98347.46;219712;1271;22659;-69
2022/02/23 02:02:26;;;;;;;10.30;2.80;;;;;;;2.91;69.57;98355.16;219784;1271;23896;-68
2022/02/23 02:07:29;;;;;;;9.80;3.90;;;;;;;2.95;69.68;98359.81;220553;1271;25363;-69
2022/02/23 02:12:32;;;;;;;9.30;3.30;;;;;;;2.99;69.82;98354.92;219567;1271;24244;-69
2022/02/23 02:17:36;;;;;;;7.20;2.90;;;;;;;3.03;69.81;98356.18;220150;1271;22815;-71
2022/02/23 02:22:39;;;;;;;7.00;2.80;;;;;;;3.06;70.10;98362.71;219994;1271;22710;-68
2022/02/23 02:27:51;;;;;;;10.80;3.10;;;;;;;3.07;70.39;98358.49;219318;1272;25475;-69
2022/02/23 02:33:02;;;;;;;6.00;3.10;;;;;;;3.05;70.56;98361.77;219622;1274;22626;-69
2022/02/23 02:38:13;;;;;;;10.10;3.60;;;;;;;3.02;70.85;98365.64;219904;1274;22566;-69
2022/02/23 02:43:16;;;;;;;5.50;2.80;;;;;;;3.00;71.25;98370.35;219517;1274;22680;-69
2022/02/23 02:54:07;;;;;;;6.60;2.90;;;;;;;2.89;72.89;98358.64;219488;1271;22709;-69
2022/02/23 02:59:18;;;;;;;12.50;3.50;;;;;;;2.83;73.37;98356.02;219319;1274;25686;-69
2022/02/23 03:04:52;;;;;;;;;;;;;;;;;;;;;
2022/02/23 03:10:44;;;;;;;;;;;;;;;;;;;;;
2022/02/23 03:16:05;;;;;;;9.80;3.90;;;;;;;2.53;75.64;98361.81;219611;1272;22657;-69
2022/02/23 03:22:27;;;;;;;9.60;3.70;;;;;;;2.47;76.95;98378.34;219565;1270;25982;-69
2022/02/23 03:27:34;;;;;;;7.30;3.50;;;;;;;2.38;77.62;98375.84;219456;1271;22586;-69
2022/02/23 03:32:57;;;;;;;6.60;3.80;;;;;;;2.31;78.13;98374.23;219596;1271;24826;-69
2022/02/23 03:38:40;;;;;;;10.80;3.90;;;;;;;2.26;79.07;98382.82;219700;1271;25794;-70
2022/02/23 03:43:45;;;;;;;9.50;3.80;;;;;;;2.25;79.45;98385.39;220712;1273;22546;-68
2022/02/23 03:48:51;;;;;;;8.90;4.10;;;;;;;2.20;80.07;98384.76;219814;1271;24241;-68
2022/02/23 03:53:54;;;;;;;8.00;3.90;;;;;;;2.13;80.16;98392.95;219440;1271;22598;-69
2022/02/23 03:59:19;;;;;;;8.80;4.20;;;;;;;2.06;80.51;98400.41;219539;1273;22567;-70
2022/02/23 04:04:22;;;;;;;11.20;4.40;;;;;;;2.06;80.54;98413.02;219371;1271;24293;-69
2022/02/23 04:09:25;;;;;;;9.20;4.60;;;;;;;2.02;81.47;98410.98;218999;1274;22691;-67
2022/02/23 04:14:31;;;;;;;9.50;4.70;;;;;;;2.00;81.56;98406.54;219435;1274;25428;-68
2022/02/23 04:19:47;;;;;;;10.10;4.50;;;;;;;1.98;82.07;98408.16;219482;1271;24456;-68
2022/02/23 04:25:53;;;;;;;10.00;4.60;;;;;;;1.99;82.68;98409.91;219366;1273;23984;-69
2022/02/23 04:31:10;;;;;;;9.10;5.00;;;;;;;2.00;83.07;98417.59;218938;1272;22612;-68
2022/02/23 04:36:27;;;;;;;10.10;4.90;;;;;;;2.02;83.45;98415.35;219536;1271;22990;-68
2022/02/23 04:41:37;;;;;;;10.40;5.00;;;;;;;2.03;84.06;98412.67;219302;1271;24090;-68
2022/02/23 04:46:42;;;;;;;16.80;6.00;;;;;;;2.05;83.99;98415.88;219802;1271;23444;-68
2022/02/23 04:51:45;;;;;;;12.00;5.80;;;;;;;2.09;84.50;98420.67;219442;1271;23169;-70
2022/02/23 04:56:48;;;;;;;8.70;4.80;;;;;;;2.12;85.06;98419.30;218952;1274;25925;-70
2022/02/23 05:01:54;;;;;;;13.80;6.10;;;;;;;2.15;85.33;98430.02;219085;1271;25299;-70
2022/02/23 05:06:59;;;;;;;11.30;5.00;;;;;;;2.19;84.36;98452.04;219094;1271;22766;-70
2022/02/23 05:12:01;;;;;;;14.20;6.10;;;;;;;2.26;84.13;98464.56;219263;1271;22558;-70
2022/02/23 05:17:04;;;;;;;11.70;5.10;;;;;;;2.34;83.93;98483.76;219291;1271;22997;-69
2022/02/23 05:22:12;;;;;;;10.60;5.50;;;;;;;2.41;84.06;98485.14;219158;1271;22564;-69
2022/02/23 05:28:09;;;;;;;12.60;5.40;;;;;;;2.44;83.91;98499.39;219091;1271;24313;-69
2022/02/23 05:33:58;;;;;;;13.60;4.60;;;;;;;2.47;84.05;98512.25;219634;1271;26556;-69
2022/02/23 05:39:06;;;;;;;6.60;3.60;;;;;;;2.55;84.31;98532.78;219347;1271;27542;-69
2022/02/23 05:44:10;;;;;;;11.40;4.60;;;;;;;2.65;84.41;98554.98;219597;1271;24419;-70
2022/02/23 05:49:12;;;;;;;10.40;4.70;;;;;;;2.69;84.27;98556.78;220967;1271;25400;-70
2022/02/23 05:54:18;;;;;;;9.50;3.90;;;;;;;2.69;84.17;98564.89;220913;1271;24408;-70
2022/02/23 05:59:21;;;;;;;6.30;3.10;;;;;;;2.72;84.39;98575.55;220591;1271;24247;-70
2022/02/23 06:04:23;;;;;;;7.70;3.70;;;;;;;2.79;84.47;98582.06;220782;1271;22534;-69
2022/02/23 06:09:25;;;;;;;6.70;2.80;;;;;;;2.88;84.76;98591.94;219671;1271;22714;-69
2022/02/23 06:14:30;;;;;;;6.90;3.10;;;;;;;2.97;84.78;98602.33;219579;1273;22578;-69
2022/02/23 06:19:32;;;;;;;8.50;4.00;;;;;;;3.05;84.91;98611.98;219399;1273;22693;-69
2022/02/23 06:24:36;;;;;;;8.90;3.70;;;;;;;3.12;84.83;98619.01;219483;1272;22616;-69
2022/02/23 06:29:41;;;;;;;9.50;3.70;;;;;;;3.20;84.81;98633.89;219787;1271;22552;-69
2022/02/23 06:34:54;;;;;;;8.40;4.10;;;;;;;3.30;84.83;98650.75;219890;1271;22584;-70
2022/02/23 06:40:09;;;;;;;7.20;2.60;;;;;;;3.38;84.85;98657.43;219519;1271;22571;-69
2022/02/23 06:45:13;;;;;;;5.50;2.00;;;;;;;3.45;84.71;98667.08;219529;1272;24871;-69
2022/02/23 06:50:21;;;;;;;4.50;2.00;;;;;;;3.51;84.62;98682.13;219414;1271;24250;-69
2022/02/23 06:55:27;;;;;;;4.00;1.90;;;;;;;3.55;84.67;98698.55;219416;1271;24309;-69
2022/02/23 07:00:57;;;;;;;9.30;2.30;;;;;;;3.59;84.40;98707.14;221059;1271;23804;-70
2022/02/23 07:06:16;;;;;;;7.10;2.10;;;;;;;3.63;84.12;98729.45;221328;1271;22746;-69
2022/02/23 07:11:28;;;;;;;;;;;;;;;;;;;;;
2022/02/23 07:16:42;;;;;;;8.90;1.90;;;;;;;3.68;83.44;98755.26;220949;1271;24687;-70
2022/02/23 07:22:08;;;;;;;6.50;2.00;;;;;;;3.78;83.16;98772.06;221110;1271;190402;-72
2022/02/23 07:27:15;;;;;;;4.90;1.80;;;;;;;3.85;82.63;98782.02;221136;1271;22685;-70
2022/02/23 07:38:05;;;;;;;9.80;2.20;;;;;;;3.97;81.92;98811.79;220927;1272;22593;-72
2022/02/23 07:43:10;;;;;;;9.50;2.40;;;;;;;4.01;81.53;98824.21;221255;1272;23068;-71
2022/02/23 07:48:14;;;;;;;9.80;2.40;;;;;;;4.03;81.18;98839.09;221183;1273;23114;-71
2022/02/23 07:53:22;;;;;;;8.10;2.30;;;;;;;4.04;80.77;98850.23;221073;1273;22607;-72
2022/02/23 07:58:52;;;;;;;10.30;2.00;;;;;;;4.06;80.36;98857.36;220989;1271;23090;-71
2022/02/23 08:03:58;;;;;;;10.00;2.50;;;;;;;4.12;79.96;98868.06;221035;1271;25539;-71
2022/02/23 08:09:07;;;;;;;10.00;2.60;;;;;;;4.20;79.65;98881.39;221115;1271;22557;-70
2022/02/23 08:14:10;;;;;;;6.50;2.00;;;;;;;4.34;79.26;98887.60;221234;1271;23203;-71
2022/02/23 08:24:49;;;;;;;6.10;1.50;;;;;;;4.38;77.75;98904.95;218687;1271;24955;-71
2022/02/23 08:30:08;;;;;;;;;;;;;;;4.40;77.73;98918.58;221489;1271;22587;-70
2022/02/23 08:35:16;;;;;;;9.70;1.80;;;;;;;4.41;77.63;98918.20;221418;1268;22560;-70
2022/02/23 08:40:19;;;;;;;10.80;2.10;;;;;;;4.43;77.35;98928.58;218871;1270;25543;-70
2022/02/23 08:45:21;;;;;;;4.10;1.70;;;;;;;4.46;77.36;98940.35;218822;1271;22737;-70
2022/02/23 08:50:24;;;;;;;6.00;2.40;;;;;;;4.52;76.89;98940.02;219119;1271;22707;-70
2022/02/23 08:55:26;;;;;;;5.20;1.40;;;;;;;4.60;76.39;98944.00;221249;1271;22675;-70
2022/02/23 09:00:38;;;;;;;8.30;2.20;;;;;;;4.63;75.59;98946.70;219253;1271;22570;-70
2022/02/23 09:05:44;;;;;;;5.00;1.40;;;;;;;4.67;75.49;98950.81;219266;1271;22583;-70
2022/02/23 09:10:47;;;;;;;4.40;1.70;;;;;;;4.70;74.38;98963.08;218566;1271;22561;-69
2022/02/23 09:15:52;;;;;;;4.20;1.50;;;;;;;4.74;73.74;98967.16;218840;1271;25061;-69
2022/02/23 09:20:54;;;;;;;6.80;1.40;;;;;;;4.81;73.20;98974.31;219070;1271;22609;-69
2022/02/23 09:25:57;;;;;;;6.50;1.50;;;;;;;4.92;71.71;98986.56;219220;1271;23812;-69
2022/02/23 09:30:59;;;;;;;8.10;1.40;;;;;;;4.99;72.09;98980.13;219200;1271;22584;-69
2022/02/23 09:36:06;;;;;;;6.10;1.70;;;;;;;5.13;71.48;98968.88;218952;1271;24116;-69
2022/02/23 09:41:21;;;;;;;5.00;1.40;;;;;;;5.38;71.61;98971.38;218921;1271;22560;-70
2022/02/23 09:46:27;;;;;;;10.30;1.80;;;;;;;5.70;70.35;99004.20;222806;1270;22789;-70
2022/02/23 09:51:29;;;;;;;6.10;1.80;;;;;;;5.49;71.61;99012.25;219041;1271;25452;-68
2022/02/23 09:56:34;;;;;;;6.60;1.90;;;;;;;4.93;73.17;99013.69;219056;1271;22900;-72
2022/02/23 10:01:47;;;;;;;6.90;2.10;;;;;;;4.88;74.90;99014.65;221722;1271;22882;-69
2022/02/23 10:07:34;;;;;;;4.60;1.60;;;;;;;5.16;75.26;99020.74;218903;1271;23932;-70
2022/02/23 10:12:42;;;;;;;6.40;1.50;;;;;;;5.27;74.00;99027.84;218869;1271;22638;-70
2022/02/23 10:18:30;;;;;;;3.70;1.40;;;;;;;5.28;73.30;99033.65;221948;1270;22805;-70
2022/02/23 10:23:35;;;;;;;5.10;1.40;;;;;;;5.24;72.89;99043.05;221057;1271;23813;-67
2022/02/23 10:28:41;;;;;;;4.40;1.40;;;;;;;5.19;72.26;99043.52;218776;1273;22657;-70
2022/02/23 10:33:45;;;;;;;6.70;1.80;;;;;;;5.13;72.53;99042.70;218175;1271;22719;-70
2022/02/23 10:39:10;;;;;;;5.50;1.60;;;;;;;5.10;72.71;99045.21;221545;1271;24212;-70
2022/02/23 10:44:27;;;;;;;4.90;2.00;;;;;;;5.23;72.65;99050.90;226503;1271;24517;-70
2022/02/23 10:49:33;;;;;;;7.00;1.80;;;;;;;5.51;72.02;99058.52;223021;1273;22565;-69
2022/02/23 10:54:43;;;;;;;5.20;1.70;;;;;;;5.76;70.68;99060.46;221105;1271;22581;-70
2022/02/23 10:59:45;;;;;;;5.60;1.80;;;;;;;5.95;69.20;99055.30;220643;1271;24433;-69
2022/02/23 11:04:49;;;;;;;8.00;1.70;;;;;;;6.17;67.35;99056.43;219024;1271;22633;-69
2022/02/23 11:09:51;;;;;;;6.10;1.90;;;;;;;6.40;66.91;99059.12;218635;1271;22644;-69
2022/02/23 11:14:57;;;;;;;6.70;1.60;;;;;;;6.59;66.49;99058.85;218355;1271;22578;-69
2022/02/23 11:20:01;;;;;;;4.10;1.40;;;;;;;6.72;64.11;99064.73;220759;1271;22563;-68
2022/02/23 11:25:04;;;;;;;2.80;1.30;;;;;;;6.86;62.40;99066.60;219942;1273;22712;-69
2022/02/23 11:30:19;;;;;;;4.70;1.60;;;;;;;6.90;61.84;99066.56;220585;1273;23626;-69
2022/02/23 11:35:48;;;;;;;5.40;1.80;;;;;;;6.96;61.89;99070.92;218928;1271;22595;-70
2022/02/23 11:40:56;;;;;;;3.60;1.80;;;;;;;7.08;62.28;99070.41;219301;1271;22590;-69
2022/02/23 11:46:03;;;;;;;5.10;1.40;;;;;;;7.14;61.13;99079.34;219112;1271;22566;-70
2022/02/23 11:51:25;;;;;;;4.80;1.30;;;;;;;7.19;60.35;99079.84;221210;1271;24223;-69
2022/02/23 11:56:51;;;;;;;4.30;1.10;;;;;;;7.26;60.08;99073.64;220902;1273;22551;-68
2022/02/23 12:02:20;;;;;;;5.70;1.50;;;;;;;7.25;58.51;99076.90;221107;1273;22750;-69
2022/02/23 12:07:24;;;;;;;4.40;1.30;;;;;;;7.32;58.77;99085.08;220061;1271;24769;-69
2022/02/23 12:13:21;;;;;;;5.70;1.80;;;;;;;7.29;58.65;99093.33;218973;1272;24440;-69
2022/02/23 12:18:45;;;;;;;4.00;1.50;;;;;;;7.21;57.27;99096.21;221350;1271;25428;-70
2022/02/23 12:23:48;;;;;;;4.90;1.20;;;;;;;7.23;57.70;99095.96;221191;1271;22612;-69
2022/02/23 12:28:54;;;;;;;4.10;1.10;;;;;;;7.36;54.87;99106.64;221305;1271;22665;-70
2022/02/23 12:34:23;;;;;;;4.80;1.40;;;;;;;7.42;53.40;99098.77;220526;1271;22939;-69
2022/02/23 12:40:06;;;;;;;4.80;1.20;;;;;;;7.43;53.80;99110.23;219740;1271;25999;-69
2022/02/23 12:45:09;;;;;;;4.90;1.60;;;;;;;7.44;54.15;99105.94;219466;1270;23534;-69
2022/02/23 12:50:29;;;;;;;2.60;1.00;;;;;;;7.45;55.10;99115.42;219273;1271;25422;-69
2022/02/23 12:55:37;;;;;;;3.40;1.10;;;;;;;7.38;53.89;99113.95;220988;1272;25468;-69
2022/02/23 13:00:49;;;;;;;6.00;1.90;;;;;;;7.48;54.41;99111.98;219011;1271;22624;-70
2022/02/23 13:05:56;;;;;;;5.10;1.50;;;;;;;7.62;54.07;99113.05;219078;1271;25272;-70
2022/02/23 13:11:00;;;;;;;4.10;1.50;;;;;;;7.51;54.17;99114.70;221840;1271;24248;-70
2022/02/23 13:16:06;;;;;;;3.80;1.50;;;;;;;7.52;54.58;99122.06;218851;1273;23958;-70
2022/02/23 13:21:14;;;;;;;4.00;1.60;;;;;;;7.49;54.03;99119.60;219078;1271;26442;-70
2022/02/23 13:26:34;;;;;;;5.70;1.20;;;;;;;7.28;54.14;99123.39;219043;1271;22622;-70
2022/02/23 13:32:07;;;;;;;4.50;1.30;;;;;;;7.20;54.82;99121.63;221293;1270;22565;-69
2022/02/23 13:37:28;;;;;;;6.20;1.50;;;;;;;7.15;54.99;99128.27;222099;1271;22543;-70
2022/02/23 13:42:36;;;;;;;4.60;1.90;;;;;;;7.12;55.10;99133.25;221043;1271;22594;-70
2022/02/23 13:47:45;;;;;;;3.40;1.20;;;;;;;7.13;54.80;99129.64;219372;1271;22589;-70
2022/02/23 13:52:49;;;;;;;4.00;1.60;;;;;;;7.23;54.37;99140.15;219474;1270;22566;-70
2022/02/23 13:58:20;;;;;;;5.10;1.60;;;;;;;7.24;53.77;99140.95;219555;1270;22563;-70
2022/02/23 14:03:34;;;;;;;6.40;1.70;;;;;;;7.10;53.93;99150.39;221506;1270;26419;-70
2022/02/23 14:08:42;;;;;;;5.30;1.30;;;;;;;6.98;53.13;99164.33;222632;1270;22561;-71
2022/02/23 14:13:51;;;;;;;4.30;1.50;;;;;;;6.87;53.02;99164.50;221326;1271;22542;-71
2022/02/23 14:18:57;;;;;;;4.20;1.60;;;;;;;6.77;53.73;99167.39;221225;1271;24177;-69
2022/02/23 14:24:05;;;;;;;4.70;1.60;;;;;;;6.77;54.27;99173.52;219048;1273;22569;-68
2022/02/23 14:29:17;;;;;;;4.10;1.70;;;;;;;6.86;54.37;99177.22;221574;1270;22650;-69
2022/02/23 14:34:39;;;;;;;;;;;;;;;;;;;;;
2022/02/23 14:39:51;;;;;;;3.70;1.00;;;;;;;6.96;53.34;99190.67;219829;1271;23951;-68
2022/02/23 14:45:03;;;;;;;5.80;1.40;;;;;;;6.88;52.62;99194.39;219361;1271;25538;-68
2022/02/23 14:50:28;;;;;;;3.80;1.20;;;;;;;6.79;53.75;99213.53;219044;1271;25388;-70
2022/02/23 14:55:34;;;;;;;4.80;1.70;;;;;;;6.81;54.20;99213.45;219165;1271;22572;-69
2022/02/23 15:00:37;;;;;;;5.60;1.70;;;;;;;6.77;54.32;99216.29;219993;1270;22554;-70
2022/02/23 15:05:53;;;;;;;6.00;1.30;;;;;;;6.77;53.96;99230.35;219224;1271;25263;-68
2022/02/23 15:11:00;;;;;;;4.80;1.30;;;;;;;6.78;53.97;99228.80;219408;1273;26498;-68
2022/02/23 15:16:12;;;;;;;4.40;1.20;;;;;;;6.71;53.00;99240.14;221490;1271;23328;-70
2022/02/23 15:21:24;;;;;;;5.60;1.70;;;;;;;6.61;53.22;99259.21;219884;1271;24443;-70
2022/02/23 15:26:27;;;;;;;4.70;1.50;;;;;;;6.55;53.62;99269.05;219755;1271;25421;-69
2022/02/23 15:31:32;;;;;;;4.60;1.30;;;;;;;6.51;53.58;99283.05;219390;1271;26534;-69
2022/02/23 15:36:38;;;;;;;4.50;1.30;;;;;;;6.39;54.14;99286.33;219692;1271;25441;-69
2022/02/23 15:41:42;;;;;;;4.30;1.90;;;;;;;6.25;54.75;99286.36;219573;1271;22548;-69
2022/02/23 15:46:45;;;;;;;5.90;1.50;;;;;;;6.11;55.41;99296.09;219609;1273;24110;-69
2022/02/23 15:51:48;;;;;;;5.50;1.90;;;;;;;6.02;55.95;99301.17;219906;1273;25941;-69
2022/02/23 15:57:16;;;;;;;7.20;2.00;;;;;;;5.91;56.59;99304.40;219820;1273;22641;-70
2022/02/23 16:02:21;;;;;;;6.90;2.00;;;;;;;5.83;56.72;99312.99;219537;1273;25880;-69
2022/02/23 16:07:23;;;;;;;8.90;2.30;;;;;;;5.75;56.92;99311.92;219569;1273;23832;-68
2022/02/23 16:12:26;;;;;;;3.60;2.10;;;;;;;5.63;57.19;99320.48;219710;1271;25442;-70
2022/02/23 16:17:35;;;;;;;6.00;1.80;;;;;;;5.50;57.34;99327.12;219588;1273;23041;-71
2022/02/23 16:22:57;;;;;;;5.50;2.20;;;;;;;5.38;57.25;99329.46;220640;1273;22512;-69
2022/02/23 16:28:07;;;;;;;3.50;1.90;;;;;;;5.26;57.50;99334.64;219725;1271;24094;-69
2022/02/23 16:33:26;;;;;;;5.40;2.30;;;;;;;5.15;57.76;99335.61;219861;1271;25422;-69
2022/02/23 16:38:31;;;;;;;8.10;2.60;;;;;;;5.04;58.01;99342.69;219420;1273;22923;-70
2022/02/23 16:43:53;;;;;;;;;;;;;;;;;;;;;
2022/02/23 16:49:10;;;;;;;7.60;2.20;;;;;;;4.97;58.39;99351.22;219650;1271;23815;-70
2022/02/23 16:54:29;;;;;;;6.40;3.20;;;;;;;4.91;58.61;99348.35;219738;1271;22731;-70
2022/02/23 16:59:31;;;;;;;9.50;3.10;;;;;;;4.81;58.92;99351.23;219862;1272;22557;-70
2022/02/23 17:04:39;;;;;;;5.60;2.70;;;;;;;4.70;59.19;99352.62;219416;1271;22631;-71
2022/02/23 17:09:41;;;;;;;5.60;2.90;;;;;;;4.61;59.42;99355.09;220536;1271;25426;-71
2022/02/23 17:15:07;;;;;;;6.30;2.90;;;;;;;4.57;59.72;99357.61;220257;1273;25513;-69
2022/02/23 17:20:36;;;;;;;6.80;2.70;;;;;;;4.53;59.93;99367.73;220155;1271;22548;-70
2022/02/23 17:25:43;;;;;;;10.40;2.90;;;;;;;4.49;60.02;99365.04;219843;1271;22657;-69
2022/02/23 17:30:48;;;;;;;9.00;2.60;;;;;;;4.43;60.24;99372.02;219818;1271;24244;-71
2022/02/23 17:35:54;;;;;;;7.70;2.90;;;;;;;4.35;60.29;99375.09;219534;1271;22540;-70
2022/02/23 17:41:06;;;;;;;10.20;2.90;;;;;;;4.25;60.45;99382.04;219866;1273;24293;-69
2022/02/23 17:46:14;;;;;;;10.20;3.00;;;;;;;4.15;60.75;99384.91;220378;1273;22990;-69
2022/02/23 17:51:17;;;;;;;10.20;3.20;;;;;;;4.05;60.90;99388.10;219785;1272;22570;-70
2022/02/23 17:56:22;;;;;;;15.10;4.60;;;;;;;3.95;61.34;99393.66;219398;1274;24855;-69
2022/02/23 18:01:45;;;;;;;9.80;4.00;;;;;;;3.88;61.46;99407.17;220323;1273;23827;-69
2022/02/23 18:06:53;;;;;;;11.70;4.50;;;;;;;3.79;61.81;99415.07;219770;1271;22797;-70
2022/02/23 18:11:58;;;;;;;13.70;5.40;;;;;;;3.69;61.88;99426.64;219696;1273;24374;-70
2022/02/23 18:17:17;;;;;;;15.40;5.90;;;;;;;3.56;62.07;99434.38;219540;1273;25302;-70
2022/02/23 18:22:22;;;;;;;14.70;5.90;;;;;;;3.42;62.39;99449.55;219684;1271;22593;-70
2022/02/23 18:27:31;;;;;;;20.30;9.30;;;;;;;3.30;62.71;99451.86;219434;1271;22933;-69
2022/02/23 18:33:50;;;;;;;32.70;15.70;;;;;;;3.20;63.75;99463.84;220586;1272;25325;-69
2022/02/23 18:39:37;;;;;;;17.30;9.80;;;;;;;3.11;63.29;99469.54;219610;1271;26593;-69
2022/02/23 18:45:13;;;;;;;8.80;4.70;;;;;;;3.01;63.56;99475.15;219651;1271;22729;-69
2022/02/23 18:51:22;;;;;;;14.40;5.50;;;;;;;2.92;63.90;99473.16;219909;1271;25485;-70
2022/02/23 18:57:19;;;;;;;11.60;4.40;;;;;;;2.84;63.84;99480.88;219770;1271;22489;-69
2022/02/23 19:03:14;;;;;;;14.40;5.30;;;;;;;2.75;64.05;99483.37;219486;1271;26288;-69
2022/02/23 19:09:31;;;;;;;;;;;;;;;;;;;;;
2022/02/23 19:15:28;;;;;;;12.80;4.70;;;;;;;2.61;64.61;99482.73;220634;1271;22611;-70
2022/02/23 19:21:53;;;;;;;23.60;7.70;;;;;;;2.64;64.75;99502.11;215440;1271;5628357;-69
2022/02/23 19:28:31;;;;;;;20.20;7.70;;;;;;;2.59;65.10;99502.81;219585;1271;22930;-70
2022/02/23 19:34:35;;;;;;;18.40;7.40;;;;;;;2.51;65.16;99501.27;219565;1271;24521;-69
2022/02/23 19:47:09;;;;;;;33.70;12.30;;;;;;;2.23;65.46;99515.61;219841;1271;24442;-70
2022/02/23 19:57:58;;;;;;;19.80;8.50;;;;;;;1.87;66.32;99518.25;220493;1271;22541;-69
2022/02/23 20:03:06;;;;;;;15.00;6.50;;;;;;;1.72;66.84;99519.32;220382;1271;24410;-70
2022/02/23 20:09:04;;;;;;;17.40;7.10;;;;;;;1.58;67.30;99519.23;219490;1273;23591;-71
2022/02/23 20:14:16;;;;;;;17.40;8.10;;;;;;;1.48;67.39;99522.11;220226;1271;22733;-69
2022/02/23 20:19:38;;;;;;;20.90;8.20;;;;;;;1.39;67.94;99521.41;219892;1271;22820;-70
2022/02/23 20:25:05;;;;;;;20.00;8.70;;;;;;;1.30;68.53;99519.63;219811;1271;25376;-71
2022/02/23 20:30:10;;;;;;;22.10;8.50;;;;;;;1.25;68.58;99515.95;219880;1271;24393;-70
2022/02/23 20:35:24;;;;;;;17.80;7.70;;;;;;;1.16;68.70;99512.66;219590;1271;24314;-70
2022/02/23 20:40:57;;;;;;;24.70;8.80;;;;;;;1.09;69.12;99514.79;219949;1271;24258;-69
2022/02/23 20:46:08;;;;;;;23.30;9.60;;;;;;;1.00;69.23;99512.96;219810;1271;25264;-70
2022/02/23 20:51:40;;;;;;;23.10;9.50;;;;;;;0.91;69.64;99506.56;219831;1271;22578;-70
2022/02/23 20:56:54;;;;;;;25.70;10.90;;;;;;;0.82;69.88;99508.21;219947;1271;25586;-70
2022/02/23 21:02:06;;;;;;;26.30;10.80;;;;;;;0.73;69.80;99507.40;219779;1271;22765;-69
2022/02/23 21:07:29;;;;;;;29.70;12.10;;;;;;;0.66;70.30;99513.27;219884;1271;22547;-69
2022/02/23 21:12:35;;;;;;;31.40;14.20;;;;;;;0.61;70.49;99514.65;219653;1271;22700;-69
2022/02/23 21:17:45;;;;;;;26.00;10.90;;;;;;;0.56;70.92;99509.86;219979;1271;22695;-71
2022/02/23 21:28:36;;;;;;;;;;;;;;;;;;;;;
2022/02/23 21:33:45;;;;;;;21.00;9.80;;;;;;;0.48;71.16;99518.10;219600;1272;27284;-70
2022/02/23 21:38:58;;;;;;;29.70;13.20;;;;;;;0.43;71.30;99515.14;219686;1271;22601;-69
2022/02/23 21:44:18;;;;;;;33.60;13.40;;;;;;;0.32;71.53;99513.16;219601;1271;24769;-70
2022/02/23 21:50:04;;;;;;;;;;;;;;;;;;;;;
2022/02/23 22:00:57;;;;;;;24.00;11.00;;;;;;;-0.07;72.41;99518.08;218899;1271;22545;-71
2022/02/23 22:06:22;;;;;;;28.30;11.20;;;;;;;-0.08;72.66;99510.58;220370;1271;24143;-70
2022/02/23 22:11:48;;;;;;;37.00;15.80;;;;;;;-0.12;72.74;99512.35;220265;1271;22767;-71
2022/02/23 22:17:24;;;;;;;40.00;18.80;;;;;;;-0.17;73.03;99516.08;219441;1271;24248;-69
2022/02/23 22:22:38;;;;;;;45.70;21.50;;;;;;;-0.22;73.29;99525.19;219617;1271;22546;-70
2022/02/23 22:27:56;;;;;;;47.50;20.70;;;;;;;-0.28;73.11;99523.30;219558;1271;24261;-70
2022/02/23 22:33:11;;;;;;;52.60;22.90;;;;;;;-0.33;73.55;99525.98;220132;1274;26355;-70
2022/02/23 22:39:12;;;;;;;47.60;21.30;;;;;;;-0.39;73.77;99523.08;219659;1271;22580;-70
2022/02/23 22:44:17;;;;;;;40.00;16.00;;;;;;;-0.41;73.89;99521.60;219431;1271;22613;-70
2022/02/23 22:55:26;;;;;;;;;;;;;;;;;;;;;
2022/02/23 23:01:00;;;;;;;60.50;24.30;;;;;;;-0.42;73.94;99519.45;219600;1271;25540;-69
2022/02/23 23:06:26;;;;;;;62.20;24.90;;;;;;;-0.43;74.21;99509.29;219508;1271;22554;-69
2022/02/23 23:11:39;;;;;;;60.40;25.70;;;;;;;-0.46;74.25;99504.86;219561;1271;24734;-70
2022/02/23 23:16:49;;;;;;;56.10;22.70;;;;;;;-0.49;74.31;99495.82;219288;1271;25492;-70
2022/02/23 23:21:55;;;;;;;51.10;20.50;;;;;;;-0.51;74.37;99492.58;219605;1271;22539;-70
2022/02/23 23:27:28;;;;;;;44.00;18.40;;;;;;;-0.51;74.64;99487.67;219403;1271;22603;-70
2022/02/23 23:33:56;;;;;;;;;;;;;;;;;;;;;
2022/02/23 23:39:36;;;;;;;58.00;21.30;;;;;;;-0.53;74.81;99482.25;219591;1271;22887;-69
2022/02/23 23:45:01;;;;;;;59.20;26.00;;;;;;;-0.51;74.57;99485.69;219517;1271;22594;-70
2022/02/23 23:50:50;;;;;;;;;;;;;;;;;;;;;
2022/02/23 23:56:01;;;;;;;75.60;29.30;;;;;;;-0.64;74.49;99489.54;220600;1271;25657;-70
